createdAt,value
2018-12-07T00:00:07.471Z,11.80
2018-12-07T00:01:07.459Z,11.74
2018-12-07T00:02:07.447Z,11.65
2018-12-07T00:03:07.435Z,11.68
2018-12-07T00:04:07.445Z,11.64
2018-12-07T00:05:07.413Z,11.70
2018-12-07T00:06:07.402Z,11.65
2018-12-07T00:07:07.390Z,11.67
2018-12-07T00:08:07.377Z,11.72
2018-12-07T00:09:07.410Z,11.67
2018-12-07T00:10:07.354Z,11.77
2018-12-07T00:11:07.345Z,11.68
2018-12-07T00:12:07.331Z,11.64
2018-12-07T00:13:07.321Z,11.62
2018-12-07T00:14:07.307Z,11.67
2018-12-07T00:15:07.317Z,11.74
2018-12-07T00:16:07.283Z,11.54
2018-12-07T00:17:07.270Z,11.65
2018-12-07T00:18:07.259Z,11.70
2018-12-07T00:19:07.248Z,11.65
2018-12-07T00:20:07.254Z,11.68
2018-12-07T00:21:07.224Z,11.62
2018-12-07T00:22:07.213Z,11.68
2018-12-07T00:23:07.203Z,11.74
2018-12-07T00:24:07.196Z,11.62
2018-12-07T00:25:07.202Z,11.53
2018-12-07T00:26:07.167Z,11.65
2018-12-07T00:27:07.154Z,11.59
2018-12-07T00:28:07.140Z,11.59
2018-12-07T00:29:07.128Z,11.65
2018-12-07T00:30:07.119Z,11.57
2018-12-07T00:31:07.125Z,11.52
2018-12-07T00:32:07.093Z,11.54
2018-12-07T00:33:07.088Z,11.57
2018-12-07T00:34:07.084Z,11.57
2018-12-07T00:35:07.058Z,11.46
2018-12-07T00:36:07.066Z,11.53
2018-12-07T00:37:07.036Z,11.56
2018-12-07T00:38:07.024Z,11.46
2018-12-07T00:39:07.017Z,11.57
2018-12-07T00:40:07.004Z,11.47
2018-12-07T00:41:07.006Z,11.43
2018-12-07T00:42:06.978Z,11.46
2018-12-07T00:43:06.966Z,11.44
2018-12-07T00:44:06.954Z,11.44
2018-12-07T00:45:06.942Z,11.44
2018-12-07T00:46:06.959Z,11.44
2018-12-07T00:47:06.921Z,11.47
2018-12-07T00:48:06.907Z,11.38
2018-12-07T00:49:06.897Z,11.43
2018-12-07T00:50:06.883Z,11.46
2018-12-07T00:51:06.895Z,11.39
2018-12-07T00:52:06.860Z,11.41
2018-12-07T00:53:06.848Z,11.46
2018-12-07T00:54:06.838Z,11.36
2018-12-07T00:55:06.825Z,11.46
2018-12-07T00:56:06.813Z,11.41
2018-12-07T00:57:06.822Z,11.34
2018-12-07T00:58:06.796Z,11.35
2018-12-07T00:59:06.779Z,11.32
2018-12-07T01:00:06.766Z,11.35
2018-12-07T01:01:06.775Z,11.35
2018-12-07T01:02:06.742Z,11.34
2018-12-07T01:03:06.733Z,11.28
2018-12-07T01:04:06.720Z,11.36
2018-12-07T01:05:06.709Z,11.41
2018-12-07T01:06:06.720Z,11.36
2018-12-07T01:07:06.684Z,11.43
2018-12-07T01:08:06.674Z,11.34
2018-12-07T01:09:06.667Z,11.31
2018-12-07T01:10:07.521Z,11.34
2018-12-07T01:11:06.679Z,11.34
2018-12-07T01:12:06.628Z,11.32
2018-12-07T01:13:06.615Z,11.36
2018-12-07T01:14:06.603Z,11.44
2018-12-07T01:15:06.591Z,11.31
2018-12-07T01:16:06.599Z,11.36
2018-12-07T01:17:06.571Z,11.46
2018-12-07T01:18:06.555Z,11.35
2018-12-07T01:19:06.544Z,11.34
2018-12-07T01:20:06.537Z,11.49
2018-12-07T01:21:06.545Z,11.36
2018-12-07T01:22:06.509Z,11.36
2018-12-07T01:23:06.498Z,11.32
2018-12-07T01:24:06.488Z,11.39
2018-12-07T01:25:06.475Z,11.36
2018-12-07T01:26:06.462Z,11.39
2018-12-07T01:27:06.470Z,11.35
2018-12-07T01:28:06.440Z,11.43
2018-12-07T01:29:06.430Z,11.36
2018-12-07T01:30:06.419Z,11.36
2018-12-07T01:31:06.409Z,11.28
2018-12-07T01:32:06.411Z,11.41
2018-12-07T01:33:06.382Z,11.34
2018-12-07T01:34:06.369Z,11.44
2018-12-07T01:35:06.359Z,11.34
2018-12-07T01:36:06.348Z,11.38
2018-12-07T01:37:06.362Z,11.41
2018-12-07T01:38:06.325Z,11.38
2018-12-07T01:39:06.314Z,11.35
2018-12-07T01:40:06.300Z,11.44
2018-12-07T01:41:06.290Z,11.27
2018-12-07T01:42:06.280Z,11.38
2018-12-07T01:43:06.282Z,11.36
2018-12-07T01:44:06.257Z,11.43
2018-12-07T01:45:06.243Z,11.39
2018-12-07T01:46:06.230Z,11.35
2018-12-07T01:47:06.217Z,11.35
2018-12-07T01:48:06.223Z,11.39
2018-12-07T01:49:06.195Z,11.38
2018-12-07T01:50:06.184Z,11.47
2018-12-07T01:51:06.174Z,11.38
2018-12-07T01:52:06.161Z,11.39
2018-12-07T01:53:06.167Z,11.41
2018-12-07T01:54:06.138Z,11.36
2018-12-07T01:55:06.122Z,11.35
2018-12-07T01:56:06.114Z,11.41
2018-12-07T01:57:06.100Z,11.43
2018-12-07T01:58:06.108Z,11.47
2018-12-07T01:59:06.076Z,11.47
2018-12-07T02:00:06.070Z,11.43
2018-12-07T02:01:06.053Z,11.39
2018-12-07T02:02:06.043Z,11.41
2018-12-07T02:03:06.050Z,11.41
2018-12-07T02:04:06.021Z,11.44
2018-12-07T02:05:06.007Z,11.44
2018-12-07T02:06:05.996Z,11.46
2018-12-07T02:07:05.983Z,11.43
2018-12-07T02:08:05.994Z,11.36
2018-12-07T02:09:05.961Z,11.47
2018-12-07T02:10:05.956Z,11.46
2018-12-07T02:11:05.937Z,11.52
2018-12-07T02:12:05.927Z,11.47
2018-12-07T02:13:05.915Z,11.49
2018-12-07T02:14:05.921Z,11.38
2018-12-07T02:15:06.531Z,11.53
2018-12-07T02:16:05.879Z,11.43
2018-12-07T02:17:05.871Z,11.39
2018-12-07T02:18:05.856Z,11.44
2018-12-07T02:19:05.872Z,11.35
2018-12-07T02:20:05.832Z,11.41
2018-12-07T02:21:05.819Z,11.46
2018-12-07T02:22:05.809Z,11.43
2018-12-07T02:23:05.798Z,11.38
2018-12-07T02:24:05.808Z,11.32
2018-12-07T02:25:05.773Z,11.46
2018-12-07T02:26:05.763Z,11.57
2018-12-07T02:27:05.750Z,11.39
2018-12-07T02:28:05.747Z,11.38
2018-12-07T02:29:05.729Z,11.34
2018-12-07T02:30:05.746Z,11.39
2018-12-07T02:31:05.704Z,11.46
2018-12-07T02:32:05.697Z,11.35
2018-12-07T02:33:05.682Z,11.32
2018-12-07T02:34:05.668Z,11.31
2018-12-07T02:35:05.680Z,11.36
2018-12-07T02:36:05.647Z,11.39
2018-12-07T02:37:05.636Z,11.34
2018-12-07T02:38:05.625Z,11.49
2018-12-07T02:39:05.610Z,11.39
2018-12-07T02:40:05.619Z,11.32
2018-12-07T02:41:05.590Z,11.39
2018-12-07T02:42:05.576Z,11.41
2018-12-07T02:43:05.576Z,11.38
2018-12-07T02:44:05.554Z,11.39
2018-12-07T02:45:05.563Z,11.31
2018-12-07T02:46:05.531Z,11.27
2018-12-07T02:47:05.520Z,11.29
2018-12-07T02:48:05.534Z,11.34
2018-12-07T02:49:05.498Z,11.34
2018-12-07T02:50:05.484Z,11.39
2018-12-07T02:51:05.474Z,11.36
2018-12-07T02:52:05.461Z,11.28
2018-12-07T02:53:05.458Z,11.24
2018-12-07T02:54:05.461Z,11.29
2018-12-07T02:55:05.427Z,11.25
2018-12-07T02:56:05.413Z,11.41
2018-12-07T02:57:05.406Z,11.43
2018-12-07T02:58:05.390Z,11.35
2018-12-07T02:59:12.457Z,11.39
2018-12-07T03:00:05.369Z,11.32
2018-12-07T03:01:05.357Z,11.32
2018-12-07T03:02:05.343Z,11.34
2018-12-07T03:03:05.331Z,11.32
2018-12-07T03:04:05.319Z,11.36
2018-12-07T03:05:05.329Z,11.36
2018-12-07T03:06:05.298Z,11.34
2018-12-07T03:07:05.288Z,11.35
2018-12-07T03:08:05.273Z,11.43
2018-12-07T03:09:05.262Z,11.32
2018-12-07T03:10:05.281Z,11.43
2018-12-07T03:11:05.240Z,11.39
2018-12-07T03:12:05.230Z,11.36
2018-12-07T03:13:05.217Z,11.35
2018-12-07T03:14:05.204Z,11.38
2018-12-07T03:15:05.197Z,11.38
2018-12-07T03:16:05.213Z,11.43
2018-12-07T03:17:05.173Z,11.38
2018-12-07T03:18:05.158Z,11.44
2018-12-07T03:19:05.146Z,11.38
2018-12-07T03:20:05.137Z,11.43
2018-12-07T03:21:05.123Z,11.49
2018-12-07T03:22:05.139Z,11.36
2018-12-07T03:23:05.102Z,11.29
2018-12-07T03:24:05.092Z,11.47
2018-12-07T03:25:05.078Z,11.41
2018-12-07T03:26:05.070Z,11.32
2018-12-07T03:27:05.055Z,11.43
2018-12-07T03:28:05.062Z,11.36
2018-12-07T03:29:05.104Z,11.32
2018-12-07T03:30:05.025Z,11.28
2018-12-07T03:31:05.010Z,11.36
2018-12-07T03:32:04.997Z,11.32
2018-12-07T03:33:05.021Z,11.35
2018-12-07T03:34:04.982Z,11.34
2018-12-07T03:35:04.962Z,11.35
2018-12-07T03:36:04.953Z,11.27
2018-12-07T03:37:04.939Z,11.29
2018-12-07T03:38:04.929Z,11.32
2018-12-07T03:39:04.941Z,11.31
2018-12-07T03:40:04.907Z,11.34
2018-12-07T03:41:04.891Z,11.31
2018-12-07T03:42:04.882Z,11.38
2018-12-07T03:43:04.870Z,11.36
2018-12-07T03:44:04.874Z,11.35
2018-12-07T03:45:04.865Z,11.39
2018-12-07T03:46:04.835Z,11.44
2018-12-07T03:47:04.823Z,11.43
2018-12-07T03:48:04.812Z,11.35
2018-12-07T03:49:04.797Z,11.35
2018-12-07T03:50:04.815Z,11.36
2018-12-07T03:51:04.775Z,11.36
2018-12-07T03:52:04.765Z,11.50
2018-12-07T03:53:04.750Z,11.56
2018-12-07T03:54:04.741Z,11.41
2018-12-07T03:55:04.734Z,11.49
2018-12-07T03:56:04.740Z,11.49
2018-12-07T03:57:04.705Z,11.38
2018-12-07T03:58:04.694Z,11.50
2018-12-07T03:59:04.683Z,11.41
2018-12-07T04:00:04.698Z,11.35
2018-12-07T04:01:04.674Z,11.46
2018-12-07T04:02:04.664Z,11.38
2018-12-07T04:03:04.637Z,11.50
2018-12-07T04:04:04.624Z,11.50
2018-12-07T04:05:04.611Z,11.44
2018-12-07T04:06:04.598Z,11.49
2018-12-07T04:07:04.616Z,11.43
2018-12-07T04:08:04.583Z,11.43
2018-12-07T04:09:04.564Z,11.52
2018-12-07T04:10:04.553Z,11.47
2018-12-07T04:11:04.541Z,11.56
2018-12-07T04:12:04.549Z,11.56
2018-12-07T04:13:04.541Z,11.47
2018-12-07T04:14:04.507Z,11.41
2018-12-07T04:15:04.497Z,11.49
2018-12-07T04:16:04.560Z,11.47
2018-12-07T04:17:04.480Z,11.50
2018-12-07T04:18:04.460Z,11.56
2018-12-07T04:19:04.493Z,11.44
2018-12-07T04:20:04.438Z,11.49
2018-12-07T04:21:04.426Z,11.49
2018-12-07T04:22:04.414Z,11.57
2018-12-07T04:23:04.402Z,11.49
2018-12-07T04:24:04.388Z,11.46
2018-12-07T04:25:04.397Z,11.53
2018-12-07T04:26:04.371Z,11.47
2018-12-07T04:27:04.354Z,11.54
2018-12-07T04:28:04.354Z,11.50
2018-12-07T04:29:04.331Z,11.43
2018-12-07T04:30:04.344Z,11.46
2018-12-07T04:31:04.312Z,11.41
2018-12-07T04:32:04.298Z,11.46
2018-12-07T04:33:04.284Z,11.56
2018-12-07T04:34:04.276Z,11.54
2018-12-07T04:35:04.268Z,11.59
2018-12-07T04:36:07.509Z,11.59
2018-12-07T04:37:04.240Z,11.59
2018-12-07T04:38:04.228Z,11.56
2018-12-07T04:39:04.224Z,11.53
2018-12-07T04:40:04.204Z,11.49
2018-12-07T04:41:04.194Z,11.43
2018-12-07T04:42:04.207Z,11.49
2018-12-07T04:43:04.181Z,11.50
2018-12-07T04:44:04.160Z,11.50
2018-12-07T04:45:04.152Z,11.59
2018-12-07T04:46:04.136Z,11.47
2018-12-07T04:47:04.168Z,11.46
2018-12-07T04:48:04.117Z,11.50
2018-12-07T04:49:04.101Z,11.50
2018-12-07T04:50:04.091Z,11.56
2018-12-07T04:51:04.084Z,11.49
2018-12-07T04:52:04.069Z,11.53
2018-12-07T04:53:04.094Z,11.52
2018-12-07T04:54:04.049Z,11.57
2018-12-07T04:55:04.032Z,11.50
2018-12-07T04:56:04.020Z,11.43
2018-12-07T04:57:04.009Z,11.47
2018-12-07T04:58:03.995Z,11.47
2018-12-07T04:59:04.006Z,11.44
2018-12-07T05:00:03.973Z,11.43
2018-12-07T05:01:03.961Z,11.49
2018-12-07T05:02:03.950Z,11.47
2018-12-07T05:03:03.937Z,11.49
2018-12-07T05:04:03.972Z,11.43
2018-12-07T05:05:03.916Z,11.49
2018-12-07T05:06:03.906Z,11.44
2018-12-07T05:07:03.898Z,11.39
2018-12-07T05:08:03.880Z,11.47
2018-12-07T05:09:03.869Z,11.44
2018-12-07T05:10:03.901Z,11.54
2018-12-07T05:11:03.851Z,11.47
2018-12-07T05:12:03.841Z,11.50
2018-12-07T05:13:03.821Z,11.56
2018-12-07T05:14:03.809Z,11.53
2018-12-07T05:15:03.800Z,11.52
2018-12-07T05:16:03.818Z,11.53
2018-12-07T05:17:03.777Z,11.52
2018-12-07T05:18:03.768Z,11.49
2018-12-07T05:19:03.752Z,11.59
2018-12-07T05:20:03.740Z,11.46
2018-12-07T05:21:03.732Z,11.52
2018-12-07T05:22:03.750Z,11.46
2018-12-07T05:23:03.708Z,11.47
2018-12-07T05:24:03.696Z,11.49
2018-12-07T05:25:03.684Z,11.39
2018-12-07T05:26:03.674Z,11.52
2018-12-07T05:27:03.660Z,11.39
2018-12-07T05:28:03.682Z,11.41
2018-12-07T05:29:03.641Z,11.54
2018-12-07T05:30:03.626Z,11.35
2018-12-07T05:31:03.619Z,11.52
2018-12-07T05:32:03.604Z,11.39
2018-12-07T05:33:03.598Z,11.38
2018-12-07T05:34:03.597Z,11.52
2018-12-07T05:35:03.568Z,11.46
2018-12-07T05:36:03.556Z,11.41
2018-12-07T05:37:03.545Z,11.49
2018-12-07T05:38:03.536Z,11.47
2018-12-07T05:39:03.547Z,11.44
2018-12-07T05:40:03.512Z,11.38
2018-12-07T05:41:03.497Z,11.49
2018-12-07T05:42:03.495Z,11.39
2018-12-07T05:43:03.474Z,11.39
2018-12-07T05:44:03.465Z,11.35
2018-12-07T05:45:03.493Z,11.46
2018-12-07T05:46:03.447Z,11.38
2018-12-07T05:47:03.428Z,11.43
2018-12-07T05:48:03.416Z,11.39
2018-12-07T05:49:03.407Z,11.35
2018-12-07T05:50:03.393Z,11.36
2018-12-07T05:51:03.404Z,11.32
2018-12-07T05:52:03.371Z,11.36
2018-12-07T05:53:03.359Z,11.34
2018-12-07T05:54:03.346Z,11.31
2018-12-07T05:55:03.334Z,11.32
2018-12-07T05:56:03.363Z,11.35
2018-12-07T05:57:03.312Z,11.46
2018-12-07T05:58:03.304Z,11.35
2018-12-07T05:59:03.286Z,11.47
2018-12-07T06:00:03.279Z,11.43
2018-12-07T06:01:03.269Z,11.47
2018-12-07T06:02:03.275Z,11.35
2018-12-07T06:03:03.241Z,11.39
2018-12-07T06:04:03.230Z,11.38
2018-12-07T06:05:03.218Z,11.35
2018-12-07T06:06:03.206Z,11.31
2018-12-07T06:07:03.205Z,11.39
2018-12-07T06:08:03.208Z,11.34
2018-12-07T06:09:03.175Z,11.46
2018-12-07T06:10:03.159Z,11.35
2018-12-07T06:11:03.148Z,11.43
2018-12-07T06:12:03.137Z,11.34
2018-12-07T06:13:03.124Z,11.32
2018-12-07T06:14:03.132Z,11.38
2018-12-07T06:15:03.102Z,11.53
2018-12-07T06:16:03.092Z,11.47
2018-12-07T06:17:03.076Z,11.53
2018-12-07T06:18:03.067Z,11.49
2018-12-07T06:19:03.093Z,11.36
2018-12-07T06:20:03.042Z,11.53
2018-12-07T06:21:03.030Z,11.38
2018-12-07T06:22:03.018Z,11.38
2018-12-07T06:23:03.016Z,11.41
2018-12-07T06:24:02.996Z,11.35
2018-12-07T06:25:03.013Z,11.29
2018-12-07T06:26:02.973Z,11.35
2018-12-07T06:27:02.959Z,11.46
2018-12-07T06:28:02.948Z,11.38
2018-12-07T06:29:02.935Z,11.41
2018-12-07T06:30:02.926Z,11.31
2018-12-07T06:31:02.930Z,11.43
2018-12-07T06:32:02.902Z,11.39
2018-12-07T06:33:02.896Z,11.35
2018-12-07T06:34:02.879Z,11.32
2018-12-07T06:35:02.873Z,11.49
2018-12-07T06:36:02.876Z,11.46
2018-12-07T06:37:02.846Z,11.36
2018-12-07T06:38:02.835Z,11.36
2018-12-07T06:39:02.821Z,11.41
2018-12-07T06:40:02.808Z,11.32
2018-12-07T06:41:02.801Z,11.36
2018-12-07T06:42:02.810Z,11.32
2018-12-07T06:43:02.772Z,11.39
2018-12-07T06:44:02.763Z,11.28
2018-12-07T06:45:02.751Z,11.36
2018-12-07T06:46:02.741Z,11.21
2018-12-07T06:47:02.727Z,11.36
2018-12-07T06:48:02.737Z,11.34
2018-12-07T06:49:02.703Z,11.32
2018-12-07T06:50:02.725Z,11.31
2018-12-07T06:51:02.684Z,11.29
2018-12-07T06:52:02.755Z,11.27
2018-12-07T06:53:02.686Z,11.27
2018-12-07T06:54:02.648Z,11.21
2018-12-07T06:55:02.635Z,11.27
2018-12-07T06:56:02.623Z,11.29
2018-12-07T06:57:02.610Z,11.31
2018-12-07T06:58:02.603Z,11.28
2018-12-07T06:59:02.613Z,11.34
2018-12-07T07:00:02.576Z,11.31
2018-12-07T07:01:02.563Z,11.28
2018-12-07T07:02:02.625Z,11.43
2018-12-07T07:03:02.543Z,11.36
2018-12-07T07:04:02.536Z,11.34
2018-12-07T07:05:02.543Z,11.35
2018-12-07T07:06:02.506Z,11.32
2018-12-07T07:07:02.498Z,11.38
2018-12-07T07:08:02.487Z,11.36
2018-12-07T07:09:02.471Z,11.25
2018-12-07T07:10:02.459Z,11.34
2018-12-07T07:11:02.469Z,11.32
2018-12-07T07:12:02.438Z,11.25
2018-12-07T07:13:02.427Z,11.31
2018-12-07T07:14:02.415Z,11.29
2018-12-07T07:15:02.407Z,11.31
2018-12-07T07:16:02.434Z,11.31
2018-12-07T07:17:02.381Z,11.31
2018-12-07T07:18:02.371Z,11.31
2018-12-07T07:19:02.363Z,11.35
2018-12-07T07:20:02.345Z,11.32
2018-12-07T07:21:02.332Z,11.25
2018-12-07T07:22:02.345Z,11.21
2018-12-07T07:23:02.310Z,11.31
2018-12-07T07:24:02.302Z,11.29
2018-12-07T07:25:02.286Z,11.29
2018-12-07T07:26:02.280Z,11.28
2018-12-07T07:27:02.264Z,11.29
2018-12-07T07:28:02.270Z,11.38
2018-12-07T07:29:02.241Z,11.44
2018-12-07T07:30:02.236Z,11.36
2018-12-07T07:31:02.221Z,11.47
2018-12-07T07:32:02.205Z,11.46
2018-12-07T07:33:02.233Z,11.47
2018-12-07T07:34:02.182Z,11.36
2018-12-07T07:35:02.171Z,11.38
2018-12-07T07:36:02.157Z,11.36
2018-12-07T07:37:02.147Z,11.36
2018-12-07T07:38:02.134Z,11.31
2018-12-07T07:39:02.148Z,11.32
2018-12-07T07:40:02.118Z,11.34
2018-12-07T07:41:02.103Z,11.35
2018-12-07T07:42:02.090Z,11.35
2018-12-07T07:43:02.078Z,11.36
2018-12-07T07:44:02.066Z,11.28
2018-12-07T07:45:02.079Z,11.38
2018-12-07T07:46:02.048Z,11.21
2018-12-07T07:47:02.036Z,11.34
2018-12-07T07:48:02.017Z,11.43
2018-12-07T07:49:02.007Z,11.28
2018-12-07T07:50:02.016Z,11.32
2018-12-07T07:51:01.986Z,11.32
2018-12-07T07:52:01.977Z,11.36
2018-12-07T07:53:01.963Z,11.32
2018-12-07T07:54:01.948Z,11.32
2018-12-07T07:55:01.951Z,11.24
2018-12-07T07:56:01.967Z,11.34
2018-12-07T07:57:01.915Z,11.39
2018-12-07T07:58:01.902Z,11.29
2018-12-07T07:59:01.892Z,11.32
2018-12-07T08:00:01.879Z,11.39
2018-12-07T08:01:01.868Z,11.31
2018-12-07T08:02:01.896Z,11.44
2018-12-07T08:03:01.849Z,11.39
2018-12-07T08:04:01.833Z,11.43
2018-12-07T08:05:01.828Z,11.31
2018-12-07T08:06:01.810Z,11.34
2018-12-07T08:07:01.796Z,11.29
2018-12-07T08:08:01.805Z,11.31
2018-12-07T08:09:01.775Z,11.41
2018-12-07T08:10:01.765Z,11.32
2018-12-07T08:11:01.753Z,11.41
2018-12-07T08:12:01.742Z,11.38
2018-12-07T08:13:01.752Z,11.47
2018-12-07T08:14:01.715Z,11.49
2018-12-07T08:15:01.704Z,11.39
2018-12-07T08:16:01.692Z,11.39
2018-12-07T08:17:01.684Z,11.36
2018-12-07T08:18:01.669Z,11.41
2018-12-07T08:19:01.682Z,11.47
2018-12-07T08:20:01.646Z,11.44
2018-12-07T08:21:01.632Z,11.46
2018-12-07T08:22:02.862Z,11.49
2018-12-07T08:23:01.610Z,11.49
2018-12-07T08:24:01.602Z,11.47
2018-12-07T08:25:01.607Z,11.49
2018-12-07T08:26:01.575Z,11.43
2018-12-07T08:27:01.564Z,11.38
2018-12-07T08:28:01.573Z,11.56
2018-12-07T08:29:01.542Z,11.38
2018-12-07T08:30:01.553Z,11.44
2018-12-07T08:31:01.520Z,11.43
2018-12-07T08:32:01.507Z,11.44
2018-12-07T08:33:01.493Z,11.44
2018-12-07T08:34:01.485Z,11.43
2018-12-07T08:35:01.473Z,11.41
2018-12-07T08:36:01.483Z,11.38
2018-12-07T08:37:01.447Z,11.49
2018-12-07T08:38:01.497Z,11.43
2018-12-07T08:39:01.425Z,11.41
2018-12-07T08:40:01.412Z,11.43
2018-12-07T08:41:01.402Z,11.46
2018-12-07T08:42:06.740Z,11.50
2018-12-07T08:43:02.375Z,11.38
2018-12-07T08:44:01.366Z,11.44
2018-12-07T08:45:01.355Z,11.46
2018-12-07T08:46:01.345Z,11.38
2018-12-07T08:47:01.362Z,11.46
2018-12-07T08:48:01.318Z,11.39
2018-12-07T08:49:01.308Z,11.44
2018-12-07T08:50:01.302Z,11.43
2018-12-07T08:51:01.284Z,11.54
2018-12-07T08:52:01.274Z,11.50
2018-12-07T08:53:01.307Z,11.44
2018-12-07T08:54:01.249Z,11.52
2018-12-07T08:55:01.239Z,11.49
2018-12-07T08:56:01.225Z,11.44
2018-12-07T08:57:01.218Z,11.56
2018-12-07T08:58:01.202Z,11.38
2018-12-07T08:59:01.221Z,11.47
2018-12-07T09:00:01.179Z,11.46
2018-12-07T09:01:01.166Z,11.34
2018-12-07T09:02:01.158Z,11.43
2018-12-07T09:03:01.148Z,11.52
2018-12-07T09:04:01.132Z,11.47
2018-12-07T09:05:01.142Z,11.49
2018-12-07T09:06:01.110Z,11.35
2018-12-07T09:07:01.097Z,11.43
2018-12-07T09:08:01.088Z,11.52
2018-12-07T09:09:01.074Z,11.56
2018-12-07T09:10:01.089Z,11.53
2018-12-07T09:11:01.051Z,11.50
2018-12-07T09:12:01.040Z,11.56
2018-12-07T09:13:01.029Z,11.57
2018-12-07T09:14:01.027Z,11.50
2018-12-07T09:15:01.003Z,11.56
2018-12-07T09:16:01.035Z,11.47
2018-12-07T09:17:00.987Z,11.50
2018-12-07T09:18:00.969Z,11.59
2018-12-07T09:19:00.959Z,11.49
2018-12-07T09:20:00.948Z,11.56
2018-12-07T09:21:00.938Z,11.52
2018-12-07T09:22:00.947Z,11.64
2018-12-07T09:23:00.912Z,11.49
2018-12-07T09:24:00.902Z,11.46
2018-12-07T09:25:00.889Z,11.44
2018-12-07T09:26:00.882Z,11.52
2018-12-07T09:27:00.890Z,11.43
2018-12-07T09:28:00.854Z,11.54
2018-12-07T09:29:00.850Z,11.56
2018-12-07T09:30:00.832Z,11.57
2018-12-07T09:31:00.820Z,11.53
2018-12-07T09:32:00.806Z,11.56
2018-12-07T09:33:00.826Z,11.57
2018-12-07T09:34:00.785Z,11.54
2018-12-07T09:35:00.770Z,11.46
2018-12-07T09:36:00.775Z,11.52
2018-12-07T09:37:00.752Z,11.56
2018-12-07T09:38:00.738Z,11.53
2018-12-07T09:39:00.743Z,11.43
2018-12-07T09:40:00.734Z,11.49
2018-12-07T09:41:00.701Z,11.44
2018-12-07T09:42:00.688Z,11.49
2018-12-07T09:43:00.677Z,11.49
2018-12-07T09:44:00.713Z,11.50
2018-12-07T09:45:00.656Z,11.52
2018-12-07T09:46:00.643Z,11.46
2018-12-07T09:47:00.642Z,11.44
2018-12-07T09:48:00.622Z,11.43
2018-12-07T09:49:00.609Z,11.44
2018-12-07T09:50:00.640Z,11.59
2018-12-07T09:51:00.586Z,11.57
2018-12-07T09:52:00.574Z,11.56
2018-12-07T09:53:00.562Z,11.56
2018-12-07T09:54:00.565Z,11.50
2018-12-07T09:55:00.540Z,11.49
2018-12-07T09:56:00.552Z,11.52
2018-12-07T09:57:00.516Z,11.53
2018-12-07T09:58:00.522Z,11.56
2018-12-07T09:59:00.494Z,11.50
2018-12-07T10:00:00.482Z,11.56
2018-12-07T10:01:00.469Z,11.61
2018-12-07T10:02:00.495Z,11.53
2018-12-07T10:03:00.454Z,11.57
2018-12-07T10:04:00.435Z,11.53
2018-12-07T10:05:00.422Z,11.54
2018-12-07T10:06:00.415Z,11.53
2018-12-07T10:07:00.411Z,11.61
2018-12-07T10:08:00.411Z,11.53
2018-12-07T10:09:00.380Z,11.50
2018-12-07T10:10:00.368Z,11.62
2018-12-07T10:11:00.354Z,11.64
2018-12-07T10:12:00.343Z,11.61
2018-12-07T10:13:07.752Z,11.68
2018-12-07T10:14:01.346Z,11.64
2018-12-07T10:15:00.311Z,11.67
2018-12-07T10:16:00.300Z,11.70
2018-12-07T10:17:00.286Z,11.77
2018-12-07T10:18:00.274Z,11.86
2018-12-07T10:19:00.261Z,11.80
2018-12-07T10:20:00.274Z,11.78
2018-12-07T10:21:00.243Z,11.67
2018-12-07T10:22:00.231Z,11.74
2018-12-07T10:23:00.217Z,11.86
2018-12-07T10:24:00.203Z,11.86
2018-12-07T10:25:00.198Z,11.82
2018-12-07T10:26:00.224Z,11.83
2018-12-07T10:27:00.168Z,11.72
2018-12-07T10:28:00.162Z,11.87
2018-12-07T10:29:00.149Z,11.78
2018-12-07T10:30:00.140Z,11.83
2018-12-07T10:31:00.124Z,11.87
2018-12-07T10:32:00.143Z,11.82
2018-12-07T10:33:00.101Z,11.89
2018-12-07T10:34:00.088Z,11.90
2018-12-07T10:35:00.078Z,11.90
2018-12-07T10:36:00.067Z,11.85
2018-12-07T10:37:00.053Z,11.85
2018-12-07T10:38:00.132Z,11.80
2018-12-07T10:39:00.031Z,11.77
2018-12-07T10:40:00.019Z,11.72
2018-12-07T10:41:00.011Z,11.68
2018-12-07T10:42:00.064Z,11.68
2018-12-07T10:42:59.985Z,11.67
2018-12-07T10:43:59.993Z,11.67
2018-12-07T10:44:59.961Z,11.67
2018-12-07T10:45:59.947Z,11.77
2018-12-07T10:46:59.940Z,11.78
2018-12-07T10:47:59.926Z,11.75
2018-12-07T10:48:59.913Z,11.87
2018-12-07T10:49:59.954Z,11.78
2018-12-07T10:50:59.890Z,11.94
2018-12-07T10:51:59.877Z,11.85
2018-12-07T10:52:59.868Z,11.82
2018-12-07T10:53:59.856Z,11.85
2018-12-07T10:54:59.843Z,11.77
2018-12-07T10:55:59.855Z,11.75
2018-12-07T10:56:59.820Z,11.93
2018-12-07T10:57:59.808Z,11.80
2018-12-07T10:58:59.797Z,11.90
2018-12-07T10:59:59.788Z,11.93
2018-12-07T11:00:59.773Z,11.86
2018-12-07T11:01:59.784Z,11.94
2018-12-07T11:02:59.751Z,11.90
2018-12-07T11:03:59.742Z,11.93
2018-12-07T11:04:59.727Z,11.86
2018-12-07T11:05:59.717Z,11.93
2018-12-07T11:06:59.707Z,11.86
2018-12-07T11:07:59.718Z,11.90
2018-12-07T11:08:59.682Z,11.83
2018-12-07T11:09:59.669Z,12.02
2018-12-07T11:10:59.657Z,11.90
2018-12-07T11:11:59.646Z,11.82
2018-12-07T11:12:59.642Z,11.87
2018-12-07T11:13:59.646Z,12.01
2018-12-07T11:14:59.691Z,11.87
2018-12-07T11:15:59.598Z,11.94
2018-12-07T11:16:59.595Z,11.97
2018-12-07T11:17:59.575Z,11.96
2018-12-07T11:18:59.564Z,12.01
2018-12-07T11:19:59.573Z,11.83
2018-12-07T11:20:59.542Z,11.97
2018-12-07T11:21:59.529Z,12.02
2018-12-07T11:22:59.520Z,12.02
2018-12-07T11:23:59.506Z,12.16
2018-12-07T11:24:59.493Z,12.05
2018-12-07T11:25:59.508Z,12.11
2018-12-07T11:26:59.471Z,12.13
2018-12-07T11:27:59.458Z,12.13
2018-12-07T11:28:59.452Z,12.12
2018-12-07T11:29:59.435Z,12.12
2018-12-07T11:30:59.423Z,12.16
2018-12-07T11:31:59.435Z,12.15
2018-12-07T11:32:59.403Z,12.09
2018-12-07T11:33:59.392Z,12.08
2018-12-07T11:34:59.380Z,12.19
2018-12-07T11:35:59.366Z,12.20
2018-12-07T11:36:59.355Z,12.23
2018-12-07T11:37:59.381Z,12.21
2018-12-07T11:38:59.329Z,12.31
2018-12-07T11:39:59.318Z,12.24
2018-12-07T11:40:59.305Z,12.26
2018-12-07T11:41:59.293Z,12.20
2018-12-07T11:42:59.285Z,12.26
2018-12-07T11:43:59.295Z,12.16
2018-12-07T11:44:59.336Z,12.27
2018-12-07T11:45:59.251Z,12.21
2018-12-07T11:46:59.236Z,12.27
2018-12-07T11:47:59.225Z,12.34
2018-12-07T11:48:59.214Z,12.33
2018-12-07T11:49:59.223Z,12.34
2018-12-07T11:50:59.191Z,12.30
2018-12-07T11:51:59.193Z,12.30
2018-12-07T11:52:59.168Z,12.30
2018-12-07T11:53:59.155Z,12.30
2018-12-07T11:54:59.151Z,12.31
2018-12-07T11:55:59.164Z,12.37
2018-12-07T11:56:59.120Z,12.39
2018-12-07T11:57:59.117Z,12.33
2018-12-07T11:58:59.097Z,12.23
2018-12-07T11:59:59.083Z,12.44
2018-12-07T12:00:59.073Z,12.42
2018-12-07T12:01:59.092Z,12.41
2018-12-07T12:02:59.049Z,12.33
2018-12-07T12:03:59.047Z,12.33
2018-12-07T12:04:59.025Z,12.30
2018-12-07T12:05:59.014Z,12.33
2018-12-07T12:06:59.003Z,12.33
2018-12-07T12:07:59.022Z,12.16
2018-12-07T12:08:58.986Z,12.33
2018-12-07T12:09:58.969Z,12.31
2018-12-07T12:10:58.955Z,12.24
2018-12-07T12:11:58.946Z,12.39
2018-12-07T12:12:58.943Z,12.33
2018-12-07T12:13:58.946Z,12.33
2018-12-07T12:14:58.926Z,12.33
2018-12-07T12:15:58.923Z,12.37
2018-12-07T12:16:58.886Z,12.34
2018-12-07T12:17:58.878Z,12.39
2018-12-07T12:18:58.869Z,12.37
2018-12-07T12:19:58.875Z,12.37
2018-12-07T12:20:58.847Z,12.56
2018-12-07T12:21:58.828Z,12.46
2018-12-07T12:22:58.816Z,12.46
2018-12-07T12:23:58.808Z,12.38
2018-12-07T12:24:58.796Z,12.56
2018-12-07T12:25:58.817Z,12.57
2018-12-07T12:26:58.814Z,12.64
2018-12-07T12:27:58.761Z,12.56
2018-12-07T12:28:58.787Z,12.57
2018-12-07T12:29:58.738Z,12.75
2018-12-07T12:30:58.726Z,12.97
2018-12-07T12:31:58.740Z,13.12
2018-12-07T12:32:58.703Z,13.17
2018-12-07T12:33:58.689Z,13.14
2018-12-07T12:34:58.725Z,13.29
2018-12-07T12:35:58.668Z,13.40
2018-12-07T12:36:58.656Z,13.46
2018-12-07T12:37:58.666Z,13.38
2018-12-07T12:38:58.639Z,13.52
2018-12-07T12:39:58.619Z,13.55
2018-12-07T12:40:58.608Z,13.61
2018-12-07T12:41:58.601Z,13.51
2018-12-07T12:42:58.586Z,13.51
2018-12-07T12:43:58.613Z,13.55
2018-12-07T12:44:58.564Z,13.54
2018-12-07T12:45:58.550Z,13.49
2018-12-07T12:46:58.538Z,13.46
2018-12-07T12:47:58.530Z,13.36
2018-12-07T12:48:58.514Z,13.20
2018-12-07T12:49:58.528Z,13.20
2018-12-07T12:50:58.491Z,13.25
2018-12-07T12:51:58.481Z,13.30